createdAt,value
2018-11-03T00:02:11.018Z,100.00
2018-11-03T00:04:41.263Z,100.00
2018-11-03T00:07:11.581Z,100.00
2018-11-03T00:09:42.000Z,100.00
2018-11-03T00:12:12.196Z,100.00
2018-11-03T00:14:42.364Z,100.00
2018-11-03T00:17:12.503Z,100.00
2018-11-03T00:19:42.684Z,100.00
2018-11-03T00:22:12.858Z,100.00
2018-11-03T00:24:43.114Z,100.00
2018-11-03T00:27:13.354Z,100.00
2018-11-03T00:29:43.534Z,100.00
2018-11-03T00:32:13.672Z,100.00
2018-11-03T00:34:43.857Z,100.00
2018-11-03T00:37:13.979Z,100.00
2018-11-03T00:39:44.111Z,100.00
2018-11-03T00:42:14.246Z,100.00
2018-11-03T00:44:44.520Z,100.00
2018-11-03T00:47:14.844Z,100.00
2018-11-03T00:49:45.135Z,100.00
2018-11-03T00:52:15.256Z,100.00
2018-11-03T00:54:45.476Z,100.00
2018-11-03T00:57:15.716Z,100.00
2018-11-03T00:59:45.932Z,100.00
2018-11-03T01:02:16.236Z,100.00
2018-11-03T01:04:46.413Z,100.00
2018-11-03T01:07:16.680Z,100.00
2018-11-03T01:09:46.986Z,100.00
2018-11-03T01:12:17.123Z,100.00
2018-11-03T01:14:47.390Z,100.00
2018-11-03T01:17:17.650Z,100.00
2018-11-03T01:19:47.869Z,100.00
2018-11-03T01:22:18.064Z,100.00
2018-11-03T01:24:48.211Z,100.00
2018-11-03T01:27:18.452Z,100.00
2018-11-03T01:29:48.819Z,100.00
2018-11-03T01:32:18.993Z,100.00
2018-11-03T01:34:49.184Z,100.00
2018-11-03T01:37:19.363Z,100.00
2018-11-03T01:39:49.495Z,100.00
2018-11-03T01:42:19.761Z,100.00
2018-11-03T01:44:49.909Z,100.00
2018-11-03T01:47:20.063Z,100.00
2018-11-03T01:49:50.197Z,100.00
2018-11-03T01:52:20.499Z,100.00
2018-11-03T01:54:50.665Z,100.00
2018-11-03T01:57:20.839Z,100.00
2018-11-03T01:59:51.163Z,100.00
2018-11-03T02:02:21.310Z,100.00
2018-11-03T02:04:51.460Z,100.00
2018-11-03T02:07:21.639Z,100.00
2018-11-03T02:09:51.807Z,100.00
2018-11-03T02:12:21.967Z,100.00
2018-11-03T02:14:52.271Z,100.00
2018-11-03T02:17:22.359Z,100.00
2018-11-03T02:19:52.628Z,100.00
2018-11-03T02:22:22.823Z,100.00
2018-11-03T02:24:53.004Z,100.00
2018-11-03T02:27:23.222Z,100.00
2018-11-03T02:29:53.480Z,100.00
2018-11-03T02:32:23.717Z,100.00
2018-11-03T02:34:53.875Z,100.00
2018-11-03T02:37:24.045Z,100.00
2018-11-03T02:39:54.224Z,100.00
2018-11-03T02:42:24.443Z,100.00
2018-11-03T02:44:54.637Z,100.00
2018-11-03T02:47:24.818Z,100.00
2018-11-03T02:49:54.959Z,100.00
2018-11-03T02:52:25.379Z,100.00
2018-11-03T02:54:55.597Z,100.00
2018-11-03T02:57:25.899Z,100.00
2018-11-03T02:59:56.210Z,100.00
2018-11-03T03:02:26.337Z,100.00
2018-11-03T03:04:56.458Z,100.00
2018-11-03T03:07:26.572Z,100.00
2018-11-03T03:09:56.779Z,100.00
2018-11-03T03:12:26.890Z,100.00
2018-11-03T03:14:57.213Z,100.00
2018-11-03T03:17:27.325Z,100.00
2018-11-03T03:19:57.471Z,100.00
2018-11-03T03:22:27.650Z,100.00
2018-11-03T03:24:57.893Z,100.00
2018-11-03T03:27:28.098Z,100.00
2018-11-03T03:29:58.253Z,100.00
2018-11-03T03:32:28.376Z,100.00
2018-11-03T03:34:58.628Z,100.00
2018-11-03T03:37:28.758Z,100.00
2018-11-03T03:39:58.935Z,100.00
2018-11-03T03:42:29.635Z,100.00
2018-11-03T03:44:59.771Z,100.00
2018-11-03T03:47:29.922Z,100.00
2018-11-03T03:50:00.096Z,100.00
2018-11-03T03:52:30.221Z,100.00
2018-11-03T03:55:00.415Z,100.00
2018-11-03T03:57:30.651Z,100.00
2018-11-03T04:00:00.871Z,100.00
2018-11-03T04:02:31.068Z,100.00
2018-11-03T04:05:01.303Z,100.00
2018-11-03T04:07:31.437Z,100.00
2018-11-03T04:10:01.627Z,100.00
2018-11-03T04:12:31.840Z,100.00
2018-11-03T04:15:02.110Z,100.00
2018-11-03T04:17:32.297Z,100.00
2018-11-03T04:20:02.631Z,100.00
2018-11-03T04:22:32.870Z,100.00
2018-11-03T04:25:03.125Z,100.00
2018-11-03T04:27:33.286Z,100.00
2018-11-03T04:30:03.443Z,100.00
2018-11-03T04:32:33.723Z,100.00
2018-11-03T04:35:03.877Z,100.00
2018-11-03T04:37:34.249Z,100.00
2018-11-03T04:40:04.972Z,100.00
2018-11-03T04:42:35.311Z,100.00
2018-11-03T04:45:06.119Z,100.00
2018-11-03T04:47:36.389Z,100.00
2018-11-03T04:50:07.207Z,100.00
2018-11-03T04:52:37.427Z,100.00
2018-11-03T04:55:09.067Z,100.00
2018-11-03T04:57:39.275Z,100.00
2018-11-03T05:00:10.654Z,100.00
2018-11-03T05:02:40.953Z,100.00
2018-11-03T05:05:11.625Z,100.00
2018-11-03T05:07:41.788Z,100.00
2018-11-03T05:10:11.943Z,100.00
2018-11-03T05:12:42.124Z,100.00
2018-11-03T05:15:12.306Z,100.00
2018-11-03T05:17:42.474Z,100.00
2018-11-03T05:20:12.594Z,100.00
2018-11-03T05:22:42.721Z,100.00
2018-11-03T05:25:12.849Z,100.00
2018-11-03T05:27:43.115Z,100.00
2018-11-03T05:30:13.289Z,100.00
2018-11-03T05:32:43.416Z,100.00
2018-11-03T05:35:13.512Z,100.00
2018-11-03T05:37:43.675Z,100.00
2018-11-03T05:40:13.786Z,100.00
2018-11-03T05:42:43.943Z,100.00
2018-11-03T05:45:14.084Z,100.00
2018-11-03T05:47:44.257Z,100.00
2018-11-03T05:50:14.469Z,100.00
2018-11-03T05:52:44.663Z,100.00
2018-11-03T05:55:14.860Z,100.00
2018-11-03T05:57:45.049Z,100.00
2018-11-03T06:00:15.233Z,100.00
2018-11-03T06:02:45.304Z,100.00
2018-11-03T06:05:15.488Z,100.00
2018-11-03T06:07:45.688Z,100.00
2018-11-03T06:10:15.826Z,100.00
2018-11-03T06:12:45.950Z,100.00
2018-11-03T06:15:16.083Z,100.00
2018-11-03T06:17:46.204Z,100.00
2018-11-03T06:20:16.410Z,100.00
2018-11-03T06:22:46.551Z,100.00
2018-11-03T06:25:16.742Z,100.00
2018-11-03T06:27:47.008Z,100.00
2018-11-03T06:30:17.106Z,100.00
2018-11-03T06:32:47.193Z,100.00
2018-11-03T06:35:17.372Z,100.00
2018-11-03T06:37:47.488Z,100.00
2018-11-03T06:40:17.668Z,100.00
2018-11-03T06:42:47.932Z,100.00
2018-11-03T06:45:18.081Z,100.00
2018-11-03T06:47:48.314Z,100.00
2018-11-03T06:53:45.255Z,100.00
2018-11-03T06:56:15.407Z,100.00
2018-11-03T06:58:45.560Z,100.00
2018-11-03T07:01:15.716Z,100.00
2018-11-03T07:03:45.873Z,100.00
2018-11-03T07:06:16.074Z,100.00
2018-11-03T07:08:46.254Z,100.00
2018-11-03T07:11:16.519Z,100.00
2018-11-03T07:13:46.731Z,100.00
2018-11-03T07:16:16.850Z,100.00
2018-11-03T07:18:47.015Z,100.00
2018-11-03T07:21:17.134Z,100.00
2018-11-03T07:23:47.312Z,100.00
2018-11-03T07:26:17.587Z,100.00
2018-11-03T07:28:47.737Z,100.00
2018-11-03T07:31:17.938Z,100.00
2018-11-03T07:33:48.104Z,100.00
2018-11-03T07:36:18.356Z,100.00
2018-11-03T07:38:48.582Z,100.00
2018-11-03T07:41:18.884Z,100.00
2018-11-03T07:43:49.721Z,100.00
2018-11-03T07:46:19.953Z,100.00
2018-11-03T07:48:50.236Z,100.00
2018-11-03T07:51:20.352Z,100.00
2018-11-03T07:53:50.616Z,100.00
2018-11-03T07:56:20.781Z,100.00
2018-11-03T07:58:50.910Z,100.00
2018-11-03T08:01:21.073Z,100.00
2018-11-03T08:03:51.331Z,100.00
2018-11-03T08:06:21.686Z,100.00
2018-11-03T08:08:51.970Z,100.00
2018-11-03T08:11:22.206Z,100.00
2018-11-03T08:13:52.495Z,100.00
2018-11-03T08:16:22.823Z,100.00
2018-11-03T08:18:53.170Z,100.00
2018-11-03T08:21:23.337Z,100.00
2018-11-03T08:23:53.637Z,100.00
2018-11-03T08:26:23.774Z,100.00
2018-11-03T08:28:54.053Z,100.00
2018-11-03T08:31:25.801Z,100.00
2018-11-03T08:33:56.013Z,100.00
2018-11-03T08:36:33.176Z,100.00
2018-11-03T08:39:04.280Z,100.00
2018-11-03T08:41:34.436Z,100.00
2018-11-03T08:44:04.667Z,100.00
2018-11-03T08:46:34.762Z,100.00
2018-11-03T08:49:10.591Z,100.00
2018-11-03T08:51:41.063Z,100.00
2018-11-03T08:54:14.158Z,100.00
2018-11-03T08:56:44.283Z,100.00
2018-11-03T08:59:14.535Z,100.00
2018-11-03T09:01:44.664Z,100.00
2018-11-03T09:04:14.803Z,100.00
2018-11-03T09:06:44.968Z,100.00
2018-11-03T09:09:15.132Z,100.00
2018-11-03T09:11:45.344Z,100.00
2018-11-03T09:14:19.262Z,100.00
2018-11-03T09:16:49.559Z,100.00
2018-11-03T09:19:19.819Z,100.00
2018-11-03T09:21:50.090Z,100.00
2018-11-03T09:24:21.166Z,100.00
2018-11-03T09:26:51.303Z,100.00
2018-11-03T09:29:21.499Z,100.00
2018-11-03T09:31:51.643Z,100.00
2018-11-03T09:34:21.833Z,100.00
2018-11-03T09:36:51.942Z,100.00
2018-11-03T09:39:22.157Z,100.00
2018-11-03T09:41:52.260Z,100.00
2018-11-03T09:44:22.451Z,100.00
2018-11-03T09:46:52.795Z,100.00
2018-11-03T09:49:25.211Z,100.00
2018-11-03T09:51:55.678Z,100.00
2018-11-03T09:54:25.776Z,100.00
2018-11-03T09:56:55.915Z,100.00
2018-11-03T09:59:26.075Z,100.00
2018-11-03T10:01:56.276Z,100.00
2018-11-03T10:04:26.444Z,100.00
2018-11-03T10:06:56.575Z,100.00
2018-11-03T10:09:27.479Z,100.00
2018-11-03T10:11:57.661Z,100.00
2018-11-03T10:14:27.831Z,100.00
2018-11-03T10:16:58.189Z,100.00
2018-11-03T10:19:28.323Z,100.00
2018-11-03T10:21:58.444Z,100.00
2018-11-03T10:24:28.598Z,100.00
2018-11-03T10:26:58.790Z,99.29
2018-11-03T10:29:29.025Z,100.00
2018-11-03T10:31:59.247Z,100.00
2018-11-03T10:34:35.277Z,100.00
2018-11-03T10:37:10.426Z,100.00
2018-11-03T10:39:43.903Z,100.00
2018-11-03T10:42:16.316Z,100.00
2018-11-03T10:44:46.549Z,97.31
2018-11-03T10:47:16.698Z,97.80
2018-11-03T10:49:46.832Z,100.00
2018-11-03T10:52:16.996Z,100.00
2018-11-03T10:54:47.107Z,98.71
2018-11-03T10:57:17.347Z,97.58
2018-11-03T10:59:47.697Z,99.45
2018-11-03T11:02:23.105Z,99.63
2018-11-03T11:04:58.561Z,95.95
2018-11-03T11:07:33.681Z,97.70
2018-11-03T11:10:08.955Z,99.51
2018-11-03T11:12:44.088Z,98.00
2018-11-03T11:15:16.157Z,98.10
2018-11-03T11:17:46.406Z,92.78
2018-11-03T11:20:23.097Z,88.15
2018-11-03T11:22:53.830Z,88.71
2018-11-03T11:25:25.537Z,87.68
2018-11-03T11:27:56.024Z,87.25
2018-11-03T11:30:32.248Z,87.72
2018-11-03T11:33:04.825Z,89.21
2018-11-03T11:35:38.851Z,87.87
2018-11-03T11:38:12.495Z,91.53
2018-11-03T11:40:44.098Z,93.01
2018-11-03T11:43:21.680Z,93.63
2018-11-03T11:45:51.889Z,96.34
2018-11-03T11:48:22.222Z,96.97
2018-11-03T11:50:52.496Z,95.33
2018-11-03T11:53:22.829Z,92.20
2018-11-03T11:55:53.058Z,88.86
2018-11-03T11:58:23.198Z,87.58
2018-11-03T12:00:55.014Z,88.25
2018-11-03T12:03:25.242Z,88.07
2018-11-03T12:05:56.485Z,86.30
2018-11-03T12:08:26.618Z,84.25
2018-11-03T12:10:56.885Z,83.97
2018-11-03T12:13:27.001Z,84.83
2018-11-03T12:15:57.234Z,82.12
2018-11-03T12:18:27.364Z,81.13
2018-11-03T12:20:57.741Z,82.61
2018-11-03T12:23:28.209Z,84.58
2018-11-03T12:25:58.487Z,81.01
2018-11-03T12:28:28.749Z,81.36
2018-11-03T12:30:59.040Z,79.94
2018-11-03T12:33:29.166Z,75.14
2018-11-03T12:35:59.312Z,75.66
2018-11-03T12:38:29.423Z,76.65
2018-11-03T12:41:01.211Z,77.42
2018-11-03T12:43:31.472Z,76.63
2018-11-03T12:46:01.893Z,76.64
2018-11-03T12:48:36.352Z,76.95
2018-11-03T12:51:06.909Z,77.51
2018-11-03T12:53:37.105Z,79.79
2018-11-03T12:56:07.646Z,80.67
2018-11-03T12:58:38.493Z,79.47
2018-11-03T13:01:09.040Z,76.78
2018-11-03T13:03:39.274Z,73.79
2018-11-03T13:06:09.449Z,75.61
2018-11-03T13:08:41.811Z,75.99
2018-11-03T13:11:11.922Z,74.19
2018-11-03T13:13:42.362Z,75.87
2018-11-03T13:16:12.457Z,73.15
2018-11-03T13:18:42.619Z,72.62
2018-11-03T13:21:12.762Z,74.45
2018-11-03T13:23:42.850Z,72.59
2018-11-03T13:26:13.112Z,72.32
2018-11-03T13:28:43.253Z,73.73
2018-11-03T13:31:19.933Z,72.64
2018-11-03T13:33:50.048Z,72.39
2018-11-03T13:36:20.299Z,72.21
2018-11-03T13:38:50.449Z,71.37
2018-11-03T13:41:20.601Z,70.04
2018-11-03T13:43:50.809Z,70.80
2018-11-03T13:46:20.923Z,71.22
2018-11-03T13:48:51.020Z,71.04
2018-11-03T13:51:21.223Z,70.15
2018-11-03T13:53:51.340Z,72.98
2018-11-03T13:56:21.458Z,69.87
2018-11-03T13:58:51.684Z,68.79
2018-11-03T14:01:21.893Z,67.78
2018-11-03T14:03:51.955Z,69.63
2018-11-03T14:06:23.116Z,68.98
2018-11-03T14:08:53.200Z,70.74
2018-11-03T14:11:23.327Z,70.36
2018-11-03T14:13:53.411Z,69.51
2018-11-03T14:16:24.118Z,69.99
2018-11-03T14:18:54.228Z,72.25
2018-11-03T14:21:24.313Z,71.78
2018-11-03T14:23:54.393Z,70.88
2018-11-03T14:26:24.525Z,70.26
2018-11-03T14:28:54.779Z,70.44
2018-11-03T14:31:24.918Z,71.59
2018-11-03T14:33:55.016Z,72.97
2018-11-03T14:36:25.285Z,70.99
2018-11-03T14:38:55.308Z,68.26
2018-11-03T14:41:26.389Z,69.73
2018-11-03T14:43:57.297Z,67.76
2018-11-03T14:46:27.624Z,67.71
2018-11-03T14:48:57.731Z,67.07
2018-11-03T14:51:27.929Z,67.07
2018-11-03T14:53:58.162Z,67.58
2018-11-03T14:56:28.305Z,68.30
2018-11-03T14:58:58.382Z,68.36
2018-11-03T15:01:28.483Z,69.42
2018-11-03T15:03:58.574Z,67.26
2018-11-03T15:06:29.029Z,68.98
2018-11-03T15:08:59.195Z,68.28
2018-11-03T15:11:29.300Z,68.48
2018-11-03T15:13:59.516Z,69.90
2018-11-03T15:16:29.644Z,71.59
2018-11-03T15:18:59.754Z,72.07
2018-11-03T15:21:29.946Z,72.84
2018-11-03T15:24:00.086Z,71.94
2018-11-03T15:26:30.301Z,73.29
2018-11-03T15:29:00.404Z,73.77
2018-11-03T15:31:30.521Z,74.82
2018-11-03T15:34:00.643Z,75.46
2018-11-03T15:36:30.878Z,76.96
2018-11-03T15:39:00.963Z,78.88
2018-11-03T15:41:31.130Z,77.88
2018-11-03T15:44:01.186Z,80.19
2018-11-03T15:46:31.395Z,81.70
2018-11-03T15:49:01.687Z,84.03
2018-11-03T15:51:31.841Z,86.41
2018-11-03T15:54:02.107Z,87.97
2018-11-03T15:56:32.253Z,89.76
2018-11-03T15:59:02.425Z,91.40
2018-11-03T16:01:32.531Z,93.20
2018-11-03T16:04:02.673Z,94.48
2018-11-03T16:06:32.762Z,95.11
2018-11-03T16:09:02.941Z,96.46
2018-11-03T16:11:33.152Z,96.88
2018-11-03T16:14:03.414Z,97.27
2018-11-03T16:16:33.604Z,97.99
2018-11-03T16:19:04.937Z,98.38
2018-11-03T16:21:35.199Z,98.88
2018-11-03T16:24:05.432Z,99.58
2018-11-03T16:26:35.600Z,100.00
2018-11-03T16:29:05.869Z,100.00
2018-11-03T16:31:36.012Z,100.00
2018-11-03T16:34:06.623Z,100.00
2018-11-03T16:36:36.866Z,100.00
2018-11-03T16:39:10.318Z,100.00
2018-11-03T16:41:40.544Z,100.00
2018-11-03T16:44:10.884Z,100.00
2018-11-03T16:46:41.134Z,100.00
2018-11-03T16:49:11.367Z,100.00
2018-11-03T16:51:41.524Z,100.00
2018-11-03T16:54:12.756Z,100.00
2018-11-03T16:56:42.994Z,100.00
2018-11-03T16:59:13.934Z,100.00
2018-11-03T17:01:44.064Z,100.00
2018-11-03T17:04:14.341Z,100.00
2018-11-03T17:06:44.943Z,100.00
2018-11-03T17:09:15.334Z,100.00
2018-11-03T17:11:45.488Z,100.00
2018-11-03T17:14:16.819Z,100.00
2018-11-03T17:16:46.976Z,100.00
2018-11-03T17:19:17.166Z,100.00
2018-11-03T17:21:47.502Z,100.00
2018-11-03T17:24:18.099Z,100.00
2018-11-03T17:26:48.456Z,100.00
2018-11-03T17:29:18.560Z,100.00
2018-11-03T17:31:48.851Z,100.00
2018-11-03T17:34:19.157Z,100.00
2018-11-03T17:36:49.643Z,100.00
2018-11-03T17:39:20.024Z,100.00
2018-11-03T17:41:50.403Z,100.00
2018-11-03T17:44:20.693Z,100.00
2018-11-03T17:46:53.389Z,100.00
2018-11-03T17:49:24.552Z,100.00
2018-11-03T17:51:56.959Z,100.00
2018-11-03T17:54:28.341Z,100.00
2018-11-03T17:56:58.708Z,100.00
2018-11-03T17:59:29.433Z,100.00
2018-11-03T18:01:59.807Z,100.00
2018-11-03T18:04:31.544Z,100.00
2018-11-03T18:07:02.643Z,100.00
2018-11-03T18:09:34.258Z,100.00
2018-11-03T18:12:04.563Z,100.00
2018-11-03T18:14:34.848Z,100.00
2018-11-03T18:17:05.011Z,100.00
2018-11-03T18:19:35.325Z,100.00
2018-11-03T18:22:05.635Z,100.00
2018-11-03T18:24:35.940Z,100.00
2018-11-03T18:27:09.660Z,100.00
2018-11-03T18:29:39.854Z,100.00
2018-11-03T18:32:11.117Z,100.00
2018-11-03T18:34:41.369Z,100.00
2018-11-03T18:37:11.656Z,100.00
2018-11-03T18:39:41.880Z,100.00
2018-11-03T18:42:12.223Z,100.00
2018-11-03T18:44:43.611Z,100.00
2018-11-03T18:47:13.916Z,100.00
2018-11-03T18:49:44.200Z,100.00
2018-11-03T18:52:14.434Z,100.00
2018-11-03T18:54:44.829Z,100.00
2018-11-03T18:57:16.091Z,100.00
2018-11-03T18:59:46.273Z,100.00
2018-11-03T19:02:16.545Z,100.00
2018-11-03T19:04:46.750Z,100.00
2018-11-03T19:07:17.141Z,100.00
2018-11-03T19:09:47.383Z,100.00
2018-11-03T19:12:17.618Z,100.00
2018-11-03T19:14:48.293Z,100.00
2018-11-03T19:17:18.886Z,100.00
2018-11-03T19:19:49.444Z,100.00
2018-11-03T19:22:19.929Z,100.00
2018-11-03T19:24:50.206Z,100.00
2018-11-03T19:27:20.521Z,100.00
2018-11-03T19:29:50.980Z,100.00
2018-11-03T19:32:22.957Z,100.00
2018-11-03T19:34:53.166Z,100.00
2018-11-03T19:37:23.334Z,100.00
2018-11-03T19:39:53.475Z,100.00
2018-11-03T19:42:23.774Z,100.00
2018-11-03T19:44:54.009Z,100.00
2018-11-03T19:47:24.210Z,100.00
2018-11-03T19:49:54.456Z,100.00
2018-11-03T19:52:24.620Z,100.00
2018-11-03T19:54:54.843Z,100.00
2018-11-03T19:57:25.186Z,100.00
2018-11-03T19:59:55.362Z,100.00
2018-11-03T20:02:25.592Z,100.00
2018-11-03T20:04:55.834Z,100.00
2018-11-03T20:07:26.118Z,100.00
2018-11-03T20:09:56.337Z,100.00
2018-11-03T20:12:26.460Z,100.00
2018-11-03T20:14:56.603Z,100.00
2018-11-03T20:17:26.891Z,100.00
2018-11-03T20:19:57.428Z,100.00
2018-11-03T20:22:27.587Z,100.00
2018-11-03T20:24:57.785Z,100.00
2018-11-03T20:27:28.204Z,100.00
2018-11-03T20:29:59.126Z,100.00
2018-11-03T20:32:29.428Z,100.00
2018-11-03T20:34:59.661Z,100.00
2018-11-03T20:37:29.844Z,100.00
2018-11-03T20:40:00.024Z,100.00
2018-11-03T20:42:30.283Z,100.00
2018-11-03T20:45:00.382Z,100.00
2018-11-03T20:47:30.520Z,100.00
2018-11-03T20:50:00.723Z,100.00
2018-11-03T20:52:31.010Z,100.00
2018-11-03T20:55:01.194Z,100.00
2018-11-03T20:57:31.387Z,100.00
2018-11-03T21:00:01.507Z,100.00
2018-11-03T21:02:31.665Z,100.00
2018-11-03T21:05:02.368Z,100.00
2018-11-03T21:07:33.072Z,100.00
2018-11-03T21:10:03.230Z,100.00
2018-11-03T21:12:33.449Z,100.00
2018-11-03T21:15:03.527Z,100.00
2018-11-03T21:17:33.943Z,100.00
2018-11-03T21:20:04.489Z,100.00
2018-11-03T21:22:34.650Z,100.00
2018-11-03T21:25:04.887Z,100.00
2018-11-03T21:27:35.135Z,100.00
2018-11-03T21:30:06.058Z,100.00
2018-11-03T21:32:36.859Z,100.00
2018-11-03T21:35:07.265Z,100.00
2018-11-03T21:37:37.998Z,100.00
2018-11-03T21:40:09.197Z,100.00
2018-11-03T21:42:39.337Z,100.00
2018-11-03T21:45:09.817Z,100.00
2018-11-03T21:47:40.136Z,100.00
2018-11-03T21:50:10.868Z,100.00
2018-11-03T21:52:41.027Z,100.00
2018-11-03T21:55:11.196Z,100.00
2018-11-03T21:57:44.378Z,100.00
2018-11-03T22:00:14.487Z,100.00
2018-11-03T22:02:44.699Z,100.00
2018-11-03T22:05:15.140Z,100.00
2018-11-03T22:07:45.432Z,100.00
2018-11-03T22:10:15.610Z,100.00
2018-11-03T22:12:45.788Z,100.00
2018-11-03T22:15:15.927Z,100.00
2018-11-03T22:17:46.177Z,100.00
2018-11-03T22:20:16.283Z,100.00
2018-11-03T22:22:46.543Z,100.00
2018-11-03T22:25:16.726Z,100.00
2018-11-03T22:27:47.053Z,100.00
2018-11-03T22:30:17.199Z,100.00
2018-11-03T22:32:47.455Z,100.00
2018-11-03T22:35:17.707Z,100.00
2018-11-03T22:37:47.899Z,100.00
2018-11-03T22:40:18.044Z,100.00
2018-11-03T22:42:48.369Z,100.00
2018-11-03T22:45:18.528Z,100.00
2018-11-03T22:47:48.711Z,100.00
2018-11-03T22:50:18.966Z,100.00
2018-11-03T22:52:49.259Z,100.00
2018-11-03T22:55:19.414Z,100.00
2018-11-03T22:57:49.615Z,100.00
2018-11-03T23:00:19.775Z,100.00
2018-11-03T23:02:49.964Z,100.00
2018-11-03T23:05:20.197Z,100.00
2018-11-03T23:07:50.340Z,100.00
2018-11-03T23:10:20.544Z,100.00
2018-11-03T23:12:50.708Z,100.00
2018-11-03T23:15:20.836Z,100.00
2018-11-03T23:17:51.061Z,100.00
2018-11-03T23:20:21.277Z,100.00
2018-11-03T23:22:51.497Z,100.00
2018-11-03T23:25:21.645Z,100.00
2018-11-03T23:27:51.889Z,100.00
2018-11-03T23:30:22.126Z,100.00
2018-11-03T23:32:52.287Z,100.00
2018-11-03T23:35:22.510Z,100.00
2018-11-03T23:37:52.680Z,100.00
2018-11-03T23:40:22.859Z,100.00
2018-11-03T23:42:53.026Z,100.00
2018-11-03T23:45:23.261Z,100.00
2018-11-03T23:47:53.432Z,100.00
2018-11-03T23:50:23.617Z,100.00
2018-11-03T23:52:53.733Z,100.00
2018-11-03T23:55:23.884Z,100.00
2018-11-03T23:57:54.071Z,100.00
